Wainwright, Oklahoma
Current Conditions -  °F | °C
As of 8:53 AM on Thursday 30 Oct 2014 (Local Time) from KMKO Reporting Station
Clear Clear  
Wind Chill: 47°   Ceiling: Unl
Heat Index: 49°   Visibility: 10mi
Dew Point: 46°   Wind: 6mph
Humidity: 90%   Direction: 160°SSE
Pressure: 30.15"   Gusts: NA
Location:  35.61°N, 95.56°W
Report Text: KMKO 301353Z AUTO 16005KT 10SM CLR 09/08 A3015 RMK AO2 SLP207 T00940078
Loading
Personal Weather Stations






























Interactive Weather Map
Tropical Storm Tracking
New forecast layout! Learn more

10-Day Weather Forecast

Advertisements
Track Severe Weather on mobile